sensor_id;sensor_type;location;lat;lon;timestamp;pressure;altitude;pressure_sealevel;temperature;humidity
10474;BME280;5284;50.446;7.904;2024-02-04T00:00:49;99252.72;;;8.32;100.00
10474;BME280;5284;50.446;7.904;2024-02-04T00:05:52;99257.06;;;8.33;100.00
10474;BME280;5284;50.446;7.904;2024-02-04T00:10:57;99246.56;;;8.31;100.00
10474;BME280;5284;50.446;7.904;2024-02-04T00:16:00;99236.13;;;8.28;100.00
10474;BME280;5284;50.446;7.904;2024-02-04T00:21:06;99220.28;;;8.27;100.00
10474;BME280;5284;50.446;7.904;2024-02-04T00:26:11;99214.34;;;8.23;100.00
10474;BME280;5284;50.446;7.904;2024-02-04T00:31:16;99210.59;;;8.26;100.00
10474;BME280;5284;50.446;7.904;2024-02-04T00:36:19;99219.31;;;8.28;100.00
10474;BME280;5284;50.446;7.904;2024-02-04T00:41:24;99226.47;;;8.27;100.00
10474;BME280;5284;50.446;7.904;2024-02-04T00:46:27;99233.56;;;8.27;100.00
10474;BME280;5284;50.446;7.904;2024-02-04T00:51:30;99229.94;;;8.28;100.00
10474;BME280;5284;50.446;7.904;2024-02-04T00:56:35;99227.28;;;8.28;100.00
10474;BME280;5284;50.446;7.904;2024-02-04T01:01:39;99241.44;;;8.28;100.00
10474;BME280;5284;50.446;7.904;2024-02-04T01:06:42;99238.88;;;8.27;100.00
10474;BME280;5284;50.446;7.904;2024-02-04T01:12:03;99255.03;;;8.24;100.00
10474;BME280;5284;50.446;7.904;2024-02-04T01:17:06;99256.84;;;8.23;100.00
10474;BME280;5284;50.446;7.904;2024-02-04T01:22:10;99252.47;;;8.22;100.00
10474;BME280;5284;50.446;7.904;2024-02-04T01:27:14;99252.47;;;8.22;100.00
10474;BME280;5284;50.446;7.904;2024-02-04T01:32:17;99231.50;;;8.18;100.00
10474;BME280;5284;50.446;7.904;2024-02-04T01:37:21;99237.81;;;8.15;100.00
10474;BME280;5284;50.446;7.904;2024-02-04T01:42:25;99243.00;;;8.18;100.00
10474;BME280;5284;50.446;7.904;2024-02-04T01:47:28;99231.50;;;8.18;100.00
10474;BME280;5284;50.446;7.904;2024-02-04T01:52:33;99218.22;;;8.18;100.00
10474;BME280;5284;50.446;7.904;2024-02-04T01:57:40;99217.44;;;8.16;100.00
10474;BME280;5284;50.446;7.904;2024-02-04T02:02:46;99214.78;;;8.16;100.00
10474;BME280;5284;50.446;7.904;2024-02-04T02:07:49;99209.41;;;8.17;100.00
10474;BME280;5284;50.446;7.904;2024-02-04T02:12:58;99201.50;;;8.16;100.00
10474;BME280;5284;50.446;7.904;2024-02-04T02:18:04;99197.03;;;8.16;100.00
10474;BME280;5284;50.446;7.904;2024-02-04T02:23:14;99194.38;;;8.16;100.00
10474;BME280;5284;50.446;7.904;2024-02-04T02:28:22;99185.56;;;8.16;100.00
10474;BME280;5284;50.446;7.904;2024-02-04T02:33:26;99173.25;;;8.15;100.00
10474;BME280;5284;50.446;7.904;2024-02-04T02:38:34;99175.03;;;8.14;100.00
10474;BME280;5284;50.446;7.904;2024-02-04T02:43:42;99161.84;;;8.13;100.00
10474;BME280;5284;50.446;7.904;2024-02-04T02:48:46;99160.91;;;8.14;100.00
10474;BME280;5284;50.446;7.904;2024-02-04T02:53:50;99159.94;;;8.15;100.00
10474;BME280;5284;50.446;7.904;2024-02-04T02:58:54;99159.94;;;8.15;100.00
10474;BME280;5284;50.446;7.904;2024-02-04T03:03:57;99164.25;;;8.17;100.00
10474;BME280;5284;50.446;7.904;2024-02-04T03:09:00;99160.66;;;8.18;100.00
10474;BME280;5284;50.446;7.904;2024-02-04T03:14:05;99172.13;;;8.19;100.00
10474;BME280;5284;50.446;7.904;2024-02-04T03:19:08;99149.06;;;8.19;100.00
10474;BME280;5284;50.446;7.904;2024-02-04T03:24:11;99136.63;;;8.20;100.00
10474;BME280;5284;50.446;7.904;2024-02-04T03:29:16;99139.28;;;8.20;100.00
10474;BME280;5284;50.446;7.904;2024-02-04T03:34:19;99134.84;;;8.20;100.00
10474;BME280;5284;50.446;7.904;2024-02-04T03:39:22;99147.25;;;8.20;100.00
10474;BME280;5284;50.446;7.904;2024-02-04T03:44:26;99139.19;;;8.21;100.00
10474;BME280;5284;50.446;7.904;2024-02-04T03:49:29;99148.88;;;8.22;100.00
10474;BME280;5284;50.446;7.904;2024-02-04T03:54:33;99144.38;;;8.23;100.00
10474;BME280;5284;50.446;7.904;2024-02-04T03:59:37;99132.94;;;8.22;100.00
10474;BME280;5284;50.446;7.904;2024-02-04T04:04:41;99132.94;;;8.22;100.00
10474;BME280;5284;50.446;7.904;2024-02-04T04:09:44;99133.75;;;8.23;100.00
10474;BME280;5284;50.446;7.904;2024-02-04T04:14:49;99131.97;;;8.23;100.00
10474;BME280;5284;50.446;7.904;2024-02-04T04:19:52;99124.97;;;8.22;100.00
10474;BME280;5284;50.446;7.904;2024-02-04T04:24:55;99132.94;;;8.22;100.00
10474;BME280;5284;50.446;7.904;2024-02-04T04:30:00;99122.31;;;8.22;100.00
10474;BME280;5284;50.446;7.904;2024-02-04T04:35:04;99137.16;;;8.25;100.00
10474;BME280;5284;50.446;7.904;2024-02-04T04:40:08;99129.31;;;8.23;100.00
10474;BME280;5284;50.446;7.904;2024-02-04T04:45:13;99131.97;;;8.23;100.00
10474;BME280;5284;50.446;7.904;2024-02-04T04:50:16;99131.84;;;8.25;100.00
10474;BME280;5284;50.446;7.904;2024-02-04T04:55:19;99134.50;;;8.25;100.00
10474;BME280;5284;50.446;7.904;2024-02-04T05:00:23;99138.03;;;8.25;100.00
10474;BME280;5284;50.446;7.904;2024-02-04T05:05:27;99144.19;;;8.26;100.00
10474;BME280;5284;50.446;7.904;2024-02-04T05:10:30;99136.13;;;8.27;100.00
10474;BME280;5284;50.446;7.904;2024-02-04T05:15:35;99135.38;;;8.25;100.00
10474;BME280;5284;50.446;7.904;2024-02-04T05:20:38;99154.59;;;8.29;100.00
10474;BME280;5284;50.446;7.904;2024-02-04T05:25:41;99145.06;;;8.26;100.00
10474;BME280;5284;50.446;7.904;2024-02-04T05:30:45;99155.56;;;8.28;100.00
10474;BME280;5284;50.446;7.904;2024-02-04T05:35:48;99145.06;;;8.26;100.00
10474;BME280;5284;50.446;7.904;2024-02-04T05:40:52;99130.06;;;8.25;100.00
10474;BME280;5284;50.446;7.904;2024-02-04T05:45:56;99139.81;;;8.25;100.00
10474;BME280;5284;50.446;7.904;2024-02-04T05:50:59;99138.13;;;8.24;100.00
10474;BME280;5284;50.446;7.904;2024-02-04T05:56:03;99133.88;;;8.21;100.00
10474;BME280;5284;50.446;7.904;2024-02-04T06:01:07;99133.88;;;8.21;100.00
10474;BME280;5284;50.446;7.904;2024-02-04T06:06:14;99130.34;;;8.21;100.00
10474;BME280;5284;50.446;7.904;2024-02-04T06:11:18;99136.63;;;8.20;100.00
10474;BME280;5284;50.446;7.904;2024-02-04T06:16:23;99134.09;;;8.18;100.00
10474;BME280;5284;50.446;7.904;2024-02-04T06:21:25;99133.28;;;8.16;100.00
10474;BME280;5284;50.446;7.904;2024-02-04T06:26:29;99140.41;;;8.16;100.00
10474;BME280;5284;50.446;7.904;2024-02-04T06:31:33;99135.03;;;8.17;100.00
10474;BME280;5284;50.446;7.904;2024-02-04T06:36:36;99132.38;;;8.17;100.00
10474;BME280;5284;50.446;7.904;2024-02-04T06:41:39;99117.19;;;8.19;100.00
10474;BME280;5284;50.446;7.904;2024-02-04T06:46:44;99110.94;;;8.20;100.00
10474;BME280;5284;50.446;7.904;2024-02-04T06:51:47;99111.75;;;8.21;100.00
10474;BME280;5284;50.446;7.904;2024-02-04T06:56:51;99120.59;;;8.21;100.00
10474;BME280;5284;50.446;7.904;2024-02-04T07:01:56;99139.94;;;8.23;100.00
10474;BME280;5284;50.446;7.904;2024-02-04T07:06:59;99134.63;;;8.23;100.00
10474;BME280;5284;50.446;7.904;2024-02-04T07:12:02;99136.34;;;8.24;100.00
10474;BME280;5284;50.446;7.904;2024-02-04T07:17:06;99123.06;;;8.24;100.00
10474;BME280;5284;50.446;7.904;2024-02-04T07:22:09;99127.50;;;8.24;100.00
10474;BME280;5284;50.446;7.904;2024-02-04T07:27:12;99129.19;;;8.25;100.00
10474;BME280;5284;50.446;7.904;2024-02-04T07:32:18;99124.75;;;8.25;100.00
10474;BME280;5284;50.446;7.904;2024-02-04T07:37:20;99145.06;;;8.26;100.00
10474;BME280;5284;50.446;7.904;2024-02-04T07:42:24;99129.84;;;8.28;100.00
10474;BME280;5284;50.446;7.904;2024-02-04T07:47:28;99123.38;;;8.32;100.00
10474;BME280;5284;50.446;7.904;2024-02-04T07:52:31;99123.19;;;8.35;100.00
10474;BME280;5284;50.446;7.904;2024-02-04T07:57:34;99123.94;;;8.37;100.00
10474;BME280;5284;50.446;7.904;2024-02-04T08:02:39;99119.25;;;8.41;100.00
10474;BME280;5284;50.446;7.904;2024-02-04T08:07:43;99111.91;;;8.44;100.00
10474;BME280;5284;50.446;7.904;2024-02-04T08:12:49;99117.69;;;8.51;100.00
10474;BME280;5284;50.446;7.904;2024-02-04T08:17:57;99116.53;;;8.55;100.00
10474;BME280;5284;50.446;7.904;2024-02-04T08:23:00;99120.78;;;8.57;100.00
10474;BME280;5284;50.446;7.904;2024-02-04T08:28:04;99116.44;;;8.56;100.00
10474;BME280;5284;50.446;7.904;2024-02-04T08:33:08;99117.38;;;8.55;100.00
10474;BME280;5284;50.446;7.904;2024-02-04T08:38:11;99113.66;;;8.58;100.00
10474;BME280;5284;50.446;7.904;2024-02-04T08:43:14;99099.53;;;8.57;100.00
10474;BME280;5284;50.446;7.904;2024-02-04T08:48:20;99118.66;;;8.62;100.00
10474;BME280;5284;50.446;7.904;2024-02-04T08:53:23;99113.34;;;8.62;100.00
10474;BME280;5284;50.446;7.904;2024-02-04T08:58:27;99119.84;;;8.58;100.00
10474;BME280;5284;50.446;7.904;2024-02-04T09:03:34;99120.47;;;8.62;100.00
10474;BME280;5284;50.446;7.904;2024-02-04T09:08:37;99110.91;;;8.84;100.00
10474;BME280;5284;50.446;7.904;2024-02-04T09:13:41;99117.00;;;8.86;100.00
10474;BME280;5284;50.446;7.904;2024-02-04T09:18:47;99115.28;;;8.85;100.00
10474;BME280;5284;50.446;7.904;2024-02-04T09:23:51;99108.69;;;8.91;100.00
10474;BME280;5284;50.446;7.904;2024-02-04T09:28:56;99118.88;;;8.97;100.00
10474;BME280;5284;50.446;7.904;2024-02-04T09:34:01;99113.91;;;9.05;100.00
10474;BME280;5284;50.446;7.904;2024-02-04T09:39:04;99105.06;;;9.04;100.00
10474;BME280;5284;50.446;7.904;2024-02-04T09:44:08;99110.69;;;9.12;100.00
10474;BME280;5284;50.446;7.904;2024-02-04T09:49:13;99119.41;;;9.14;100.00
10474;BME280;5284;50.446;7.904;2024-02-04T09:54:18;99113.13;;;9.27;100.00
10474;BME280;5284;50.446;7.904;2024-02-04T09:59:24;99115.56;;;9.43;100.00
10474;BME280;5284;50.446;7.904;2024-02-04T10:04:29;99140.03;;;9.48;100.00
10474;BME280;5284;50.446;7.904;2024-02-04T10:09:32;99142.16;;;9.43;100.00
10474;BME280;5284;50.446;7.904;2024-02-04T10:14:35;99132.16;;;9.46;100.00
10474;BME280;5284;50.446;7.904;2024-02-04T10:19:41;99139.63;;;9.41;100.00
10474;BME280;5284;50.446;7.904;2024-02-04T10:24:44;99116.66;;;9.40;100.00
10474;BME280;5284;50.446;7.904;2024-02-04T10:29:50;99122.94;;;9.39;100.00
10474;BME280;5284;50.446;7.904;2024-02-04T10:34:57;99121.41;;;9.48;100.00
10474;BME280;5284;50.446;7.904;2024-02-04T10:40:01;99130.66;;;9.55;100.00
10474;BME280;5284;50.446;7.904;2024-02-04T10:45:07;99118.16;;;9.68;100.00
10474;BME280;5284;50.446;7.904;2024-02-04T10:50:14;99109.13;;;9.70;100.00
10474;BME280;5284;50.446;7.904;2024-02-04T10:55:22;99085.34;;;9.67;100.00
10474;BME280;5284;50.446;7.904;2024-02-04T11:00:28;99094.66;;;9.62;100.00
10474;BME280;5284;50.446;7.904;2024-02-04T11:05:34;99092.44;;;9.56;100.00
10474;BME280;5284;50.446;7.904;2024-02-04T11:10:38;99098.72;;;9.55;100.00
10474;BME280;5284;50.446;7.904;2024-02-04T11:15:42;99086.88;;;9.59;100.00
10474;BME280;5284;50.446;7.904;2024-02-04T11:21:08;99086.53;;;9.63;100.00
10474;BME280;5284;50.446;7.904;2024-02-04T11:26:15;99084.38;;;9.68;100.00
10474;BME280;5284;50.446;7.904;2024-02-04T11:31:19;99075.94;;;9.87;100.00
10474;BME280;5284;50.446;7.904;2024-02-04T11:36:25;99070.38;;;9.90;100.00
10474;BME280;5284;50.446;7.904;2024-02-04T11:41:28;99060.72;;;10.00;100.00
10474;BME280;5284;50.446;7.904;2024-02-04T11:46:33;99060.53;;;9.90;100.00
10474;BME280;5284;50.446;7.904;2024-02-04T11:51:41;99056.66;;;9.83;100.00
10474;BME280;5284;50.446;7.904;2024-02-04T11:56:48;99053.34;;;9.80;100.00
10474;BME280;5284;50.446;7.904;2024-02-04T12:01:55;99051.66;;;9.79;100.00
10474;BME280;5284;50.446;7.904;2024-02-04T12:06:59;99058.38;;;9.72;100.00
10474;BME280;5284;50.446;7.904;2024-02-04T12:12:05;99039.94;;;9.81;100.00
10474;BME280;5284;50.446;7.904;2024-02-04T12:17:09;99039.75;;;9.72;100.00
10474;BME280;5284;50.446;7.904;2024-02-04T12:22:15;99034.09;;;9.76;100.00
10474;BME280;5284;50.446;7.904;2024-02-04T12:27:18;99033.72;;;9.81;100.00
10474;BME280;5284;50.446;7.904;2024-02-04T12:32:21;99018.66;;;9.69;100.00
10474;BME280;5284;50.446;7.904;2024-02-04T12:37:26;99005.53;;;9.78;100.00
10474;BME280;5284;50.446;7.904;2024-02-04T12:42:30;99023.31;;;9.78;100.00
10474;BME280;5284;50.446;7.904;2024-02-04T12:47:34;99018.56;;;9.70;100.00
10474;BME280;5284;50.446;7.904;2024-02-04T12:52:38;99022.81;;;9.73;100.00
10474;BME280;5284;50.446;7.904;2024-02-04T12:57:41;99021.34;;;9.69;100.00
10474;BME280;5284;50.446;7.904;2024-02-04T13:02:48;99015.69;;;9.73;100.00
10474;BME280;5284;50.446;7.904;2024-02-04T13:08:02;99013.34;;;9.69;100.00
10474;BME280;5284;50.446;7.904;2024-02-04T13:13:07;99005.41;;;9.80;100.00
10474;BME280;5284;50.446;7.904;2024-02-04T13:18:13;98992.81;;;9.82;100.00
10474;BME280;5284;50.446;7.904;2024-02-04T13:23:19;98982.22;;;9.93;100.00
10474;BME280;5284;50.446;7.904;2024-02-04T13:28:22;98987.78;;;9.90;100.00
10474;BME280;5284;50.446;7.904;2024-02-04T13:33:26;98980.75;;;9.89;100.00
10474;BME280;5284;50.446;7.904;2024-02-04T13:38:30;98986.66;;;9.81;100.00
10474;BME280;5284;50.446;7.904;2024-02-04T13:43:33;98988.84;;;9.87;100.00
10474;BME280;5284;50.446;7.904;2024-02-04T13:48:36;98990.69;;;9.87;100.00
10474;BME280;5284;50.446;7.904;2024-02-04T13:53:41;98972.78;;;9.89;100.00
10474;BME280;5284;50.446;7.904;2024-02-04T13:58:48;98977.56;;;9.84;100.00
10474;BME280;5284;50.446;7.904;2024-02-04T14:03:51;98980.22;;;9.84;100.00
10474;BME280;5284;50.446;7.904;2024-02-04T14:08:59;98981.84;;;9.86;100.00
10474;BME280;5284;50.446;7.904;2024-02-04T14:14:02;98981.94;;;9.85;100.00
10474;BME280;5284;50.446;7.904;2024-02-04T14:19:06;98978.09;;;9.89;100.00
10474;BME280;5284;50.446;7.904;2024-02-04T14:24:10;98980.75;;;9.89;100.00
10474;BME280;5284;50.446;7.904;2024-02-04T14:29:14;98976.03;;;9.92;100.00
10474;BME280;5284;50.446;7.904;2024-02-04T14:34:18;98983.94;;;9.94;100.00
10474;BME280;5284;50.446;7.904;2024-02-04T14:39:23;98981.13;;;9.95;100.00
10474;BME280;5284;50.446;7.904;2024-02-04T14:44:26;98987.78;;;9.90;100.00
10474;BME280;5284;50.446;7.904;2024-02-04T14:49:29;98987.88;;;9.88;100.00
10474;BME280;5284;50.446;7.904;2024-02-04T14:54:34;98990.69;;;9.87;100.00
10474;BME280;5284;50.446;7.904;2024-02-04T15:05:59;98993.03;;;9.79;100.00
10474;BME280;5284;50.446;7.904;2024-02-04T15:11:03;99000.66;;;9.72;100.00
10474;BME280;5284;50.446;7.904;2024-02-04T15:16:08;99001.00;;;9.68;100.00
10474;BME280;5284;50.446;7.904;2024-02-04T15:21:14;99000.25;;;9.66;100.00
10474;BME280;5284;50.446;7.904;2024-02-04T15:26:19;98976.63;;;9.61;100.00
10474;BME280;5284;50.446;7.904;2024-02-04T15:31:25;98974.81;;;9.62;100.00
10474;BME280;5284;50.446;7.904;2024-02-04T15:36:29;98959.59;;;9.64;100.00
10474;BME280;5284;50.446;7.904;2024-02-04T15:41:35;98963.44;;;9.60;100.00
10474;BME280;5284;50.446;7.904;2024-02-04T15:46:40;98979.66;;;9.57;100.00
10474;BME280;5284;50.446;7.904;2024-02-04T15:51:45;98975.88;;;9.59;100.00
10474;BME280;5284;50.446;7.904;2024-02-04T15:57:06;98975.38;;;9.54;100.00
10474;BME280;5284;50.446;7.904;2024-02-04T16:02:11;98974.88;;;9.49;100.00
10474;BME280;5284;50.446;7.904;2024-02-04T16:07:15;98965.28;;;9.47;100.00
10474;BME280;5284;50.446;7.904;2024-02-04T16:12:21;98975.09;;;9.46;100.00
10474;BME280;5284;50.446;7.904;2024-02-04T16:17:25;98964.34;;;9.48;100.00
10474;BME280;5284;50.446;7.904;2024-02-04T16:22:34;98968.91;;;9.46;100.00
10474;BME280;5284;50.446;7.904;2024-02-04T16:27:38;98958.41;;;9.44;100.00
10474;BME280;5284;50.446;7.904;2024-02-04T16:32:46;98961.16;;;9.43;100.00
10474;BME280;5284;50.446;7.904;2024-02-04T16:37:49;98963.81;;;9.43;100.00
10474;BME280;5284;50.446;7.904;2024-02-04T16:42:54;98970.13;;;9.42;100.00
10474;BME280;5284;50.446;7.904;2024-02-04T16:47:57;98954.13;;;9.42;100.00
10474;BME280;5284;50.446;7.904;2024-02-04T16:53:01;98954.13;;;9.42;100.00
10474;BME280;5284;50.446;7.904;2024-02-04T16:58:06;98937.22;;;9.43;100.00
10474;BME280;5284;50.446;7.904;2024-02-04T17:03:10;98954.88;;;9.44;100.00
10474;BME280;5284;50.446;7.904;2024-02-04T17:08:14;98955.63;;;9.46;100.00
10474;BME280;5284;50.446;7.904;2024-02-04T17:13:19;98951.75;;;9.50;100.00
10474;BME280;5284;50.446;7.904;2024-02-04T17:18:28;98933.13;;;9.50;100.00
10474;BME280;5284;50.446;7.904;2024-02-04T17:23:37;98940.16;;;9.51;100.00
10474;BME280;5284;50.446;7.904;2024-02-04T17:28:42;98923.34;;;9.50;100.00
10474;BME280;5284;50.446;7.904;2024-02-04T17:33:48;98923.34;;;9.50;100.00
10474;BME280;5284;50.446;7.904;2024-02-04T17:38:53;98912.78;;;9.49;100.00
10474;BME280;5284;50.446;7.904;2024-02-04T17:43:59;98912.06;;;9.47;100.00
10474;BME280;5284;50.446;7.904;2024-02-04T17:49:04;98920.78;;;9.49;100.00
10474;BME280;5284;50.446;7.904;2024-02-04T17:54:11;98912.91;;;9.47;100.00
10474;BME280;5284;50.446;7.904;2024-02-04T17:59:15;98919.06;;;9.48;100.00
10474;BME280;5284;50.446;7.904;2024-02-04T18:04:19;98928.75;;;9.49;100.00
10474;BME280;5284;50.446;7.904;2024-02-04T18:09:22;98939.41;;;9.49;100.00
10474;BME280;5284;50.446;7.904;2024-02-04T18:14:27;98927.94;;;9.48;100.00
10474;BME280;5284;50.446;7.904;2024-02-04T18:19:30;98926.97;;;9.49;100.00
10474;BME280;5284;50.446;7.904;2024-02-04T18:24:35;98923.44;;;9.49;100.00
10474;BME280;5284;50.446;7.904;2024-02-04T18:29:41;98910.25;;;9.47;100.00
10474;BME280;5284;50.446;7.904;2024-02-04T18:34:47;98903.25;;;9.46;100.00
10474;BME280;5284;50.446;7.904;2024-02-04T18:39:52;98913.03;;;9.46;100.00
10474;BME280;5284;50.446;7.904;2024-02-04T18:44:57;98911.31;;;9.45;100.00
10474;BME280;5284;50.446;7.904;2024-02-04T18:50:01;98905.91;;;9.46;100.00
10474;BME280;5284;50.446;7.904;2024-02-04T18:55:07;98896.31;;;9.44;100.00
10474;BME280;5284;50.446;7.904;2024-02-04T19:00:12;98899.72;;;9.46;100.00
10474;BME280;5284;50.446;7.904;2024-02-04T19:05:15;98886.63;;;9.43;100.00
10474;BME280;5284;50.446;7.904;2024-02-04T19:10:19;98884.94;;;9.42;100.00
10474;BME280;5284;50.446;7.904;2024-02-04T19:15:23;98893.06;;;9.40;100.00
10474;BME280;5284;50.446;7.904;2024-02-04T19:20:26;98893.06;;;9.40;100.00
10474;BME280;5284;50.446;7.904;2024-02-04T19:31:45;98901.59;;;9.33;100.00
10474;BME280;5284;50.446;7.904;2024-02-04T19:36:49;98901.69;;;9.31;100.00
10474;BME280;5284;50.446;7.904;2024-02-04T19:41:53;98897.25;;;9.32;100.00
10474;BME280;5284;50.446;7.904;2024-02-04T19:46:59;98893.72;;;9.31;100.00
10474;BME280;5284;50.446;7.904;2024-02-04T19:52:03;98894.06;;;9.27;100.00
10474;BME280;5284;50.446;7.904;2024-02-04T19:57:07;98909.09;;;9.28;100.00
10474;BME280;5284;50.446;7.904;2024-02-04T20:02:11;98903.03;;;9.26;100.00
10474;BME280;5284;50.446;7.904;2024-02-04T20:07:15;98904.94;;;9.24;100.00
10474;BME280;5284;50.446;7.904;2024-02-04T20:12:19;98916.19;;;9.27;100.00
10474;BME280;5284;50.446;7.904;2024-02-04T20:17:24;98927.81;;;9.26;100.00
10474;BME280;5284;50.446;7.904;2024-02-04T20:22:29;98928.66;;;9.27;100.00
10474;BME280;5284;50.446;7.904;2024-02-04T20:27:32;98928.66;;;9.27;100.00
10474;BME280;5284;50.446;7.904;2024-02-04T20:32:38;98926.97;;;9.26;100.00
10474;BME280;5284;50.446;7.904;2024-02-04T20:37:42;98928.78;;;9.25;100.00
10474;BME280;5284;50.446;7.904;2024-02-04T20:42:45;98920.56;;;9.28;100.00
10474;BME280;5284;50.446;7.904;2024-02-04T20:47:50;98912.47;;;9.30;100.00
10474;BME280;5284;50.446;7.904;2024-02-04T20:52:56;98918.63;;;9.30;100.00
10474;BME280;5284;50.446;7.904;2024-02-04T20:58:01;98918.41;;;9.33;100.00
10474;BME280;5284;50.446;7.904;2024-02-04T21:03:06;98926.28;;;9.35;100.00
10474;BME280;5284;50.446;7.904;2024-02-04T21:08:09;98930.66;;;9.36;100.00
10474;BME280;5284;50.446;7.904;2024-02-04T21:13:13;98921.59;;;9.38;100.00
10474;BME280;5284;50.446;7.904;2024-02-04T21:18:19;98923.41;;;9.38;100.00
10474;BME280;5284;50.446;7.904;2024-02-04T21:23:23;98914.34;;;9.40;100.00
10474;BME280;5284;50.446;7.904;2024-02-04T21:28:26;98916.47;;;9.35;100.00
10474;BME280;5284;50.446;7.904;2024-02-04T21:33:32;98905.22;;;9.32;100.00
10474;BME280;5284;50.446;7.904;2024-02-04T21:38:35;98889.50;;;9.29;100.00
10474;BME280;5284;50.446;7.904;2024-02-04T21:43:38;98893.13;;;9.28;100.00
10474;BME280;5284;50.446;7.904;2024-02-04T21:48:44;98877.88;;;9.30;100.00
10474;BME280;5284;50.446;7.904;2024-02-04T21:53:47;98886.19;;;9.25;100.00
10474;BME280;5284;50.446;7.904;2024-02-04T21:58:51;98893.91;;;9.17;100.00
10474;BME280;5284;50.446;7.904;2024-02-04T22:03:56;98888.47;;;9.19;100.00
10474;BME280;5284;50.446;7.904;2024-02-04T22:08:59;98882.41;;;9.17;100.00
10474;BME280;5284;50.446;7.904;2024-02-04T22:14:03;98895.09;;;9.13;100.00
10474;BME280;5284;50.446;7.904;2024-02-04T22:19:07;98889.03;;;9.11;100.00
10474;BME280;5284;50.446;7.904;2024-02-04T22:24:11;98897.13;;;9.10;100.00
10474;BME280;5284;50.446;7.904;2024-02-04T22:29:14;98891.94;;;9.08;100.00
10474;BME280;5284;50.446;7.904;2024-02-04T22:34:19;98887.91;;;9.03;100.00
10474;BME280;5284;50.446;7.904;2024-02-04T22:39:22;98892.72;;;8.98;100.00
10474;BME280;5284;50.446;7.904;2024-02-04T22:44:25;98905.59;;;8.92;100.00
10474;BME280;5284;50.446;7.904;2024-02-04T22:49:31;98904.25;;;8.86;100.00
10474;BME280;5284;50.446;7.904;2024-02-04T22:54:34;98879.91;;;8.80;100.00
10474;BME280;5284;50.446;7.904;2024-02-04T22:59:37;98882.88;;;8.75;100.00
10474;BME280;5284;50.446;7.904;2024-02-04T23:04:43;98886.63;;;8.73;100.00
10474;BME280;5284;50.446;7.904;2024-02-04T23:09:47;98879.47;;;8.73;100.00
10474;BME280;5284;50.446;7.904;2024-02-04T23:14:53;98882.03;;;8.75;100.00
10474;BME280;5284;50.446;7.904;2024-02-04T23:19:57;98888.19;;;8.75;100.00
10474;BME280;5284;50.446;7.904;2024-02-04T23:25:04;98896.06;;;8.77;100.00
10474;BME280;5284;50.446;7.904;2024-02-04T23:30:08;98893.50;;;8.75;100.00
10474;BME280;5284;50.446;7.904;2024-02-04T23:35:14;98897.13;;;8.74;100.00
10474;BME280;5284;50.446;7.904;2024-02-04T23:40:17;98906.28;;;8.70;100.00
10474;BME280;5284;50.446;7.904;2024-02-04T23:45:20;98886.13;;;8.68;100.00
10474;BME280;5284;50.446;7.904;2024-02-04T23:50:25;98879.94;;;8.67;100.00
10474;BME280;5284;50.446;7.904;2024-02-04T23:55:28;98883.56;;;8.66;100.00
